createdAt,value
2023-03-30T00:01:00.028Z,0.78
2023-03-30T00:01:59.984Z,0.78
2023-03-30T00:03:00.246Z,0.78
2023-03-30T00:04:00.208Z,0.78
2023-03-30T00:05:00.235Z,0.78
2023-03-30T00:06:00.129Z,0.78
2023-03-30T00:07:00.178Z,0.78
2023-03-30T00:08:00.189Z,0.78
2023-03-30T00:09:00.239Z,0.78
2023-03-30T00:10:00.233Z,0.78
2023-03-30T00:11:00.305Z,0.78
2023-03-30T00:12:00.341Z,0.78
2023-03-30T00:13:00.339Z,0.78
2023-03-30T00:14:00.345Z,0.78
2023-03-30T00:15:00.432Z,0.78
2023-03-30T00:16:00.465Z,0.78
2023-03-30T00:17:00.502Z,0.79
2023-03-30T00:18:00.520Z,0.78
2023-03-30T00:19:00.573Z,0.78
2023-03-30T00:20:00.592Z,0.78
2023-03-30T00:21:00.563Z,0.77
2023-03-30T00:22:00.592Z,0.76
2023-03-30T00:23:00.618Z,0.78
2023-03-30T00:24:00.653Z,0.77
2023-03-30T00:25:00.696Z,0.77
2023-03-30T00:26:00.692Z,0.77
2023-03-30T00:27:00.722Z,0.77
2023-03-30T00:28:00.714Z,0.77
2023-03-30T00:29:00.782Z,0.77
2023-03-30T00:30:00.783Z,0.77
2023-03-30T00:31:00.929Z,0.77
2023-03-30T00:32:00.862Z,0.77
2023-03-30T00:33:00.944Z,0.78
2023-03-30T00:34:00.918Z,0.77
2023-03-30T00:35:00.948Z,0.78
2023-03-30T00:36:01.018Z,0.77
2023-03-30T00:37:01.026Z,0.78
2023-03-30T00:38:01.049Z,0.77
2023-03-30T00:39:01.117Z,0.77
2023-03-30T00:40:01.093Z,0.77
2023-03-30T00:41:01.289Z,0.77
2023-03-30T00:42:01.152Z,0.77
2023-03-30T00:43:01.263Z,0.78
2023-03-30T00:44:01.243Z,0.77
2023-03-30T00:45:01.231Z,0.78
2023-03-30T00:46:01.539Z,0.77
2023-03-30T00:47:01.325Z,0.77
2023-03-30T00:48:01.391Z,0.77
2023-03-30T00:49:01.383Z,0.77
2023-03-30T00:50:01.406Z,0.77
2023-03-30T00:51:01.747Z,0.78
2023-03-30T00:52:01.504Z,0.77
2023-03-30T00:53:01.498Z,0.77
2023-03-30T00:54:01.575Z,0.78
2023-03-30T00:55:01.594Z,0.77
2023-03-30T00:56:01.616Z,0.77
2023-03-30T00:57:01.666Z,0.77
2023-03-30T00:58:01.692Z,0.77
2023-03-30T00:59:01.782Z,0.77
2023-03-30T01:00:01.774Z,0.77
2023-03-30T01:01:01.876Z,0.77
2023-03-30T01:02:01.806Z,0.77
2023-03-30T01:03:01.931Z,0.77
2023-03-30T01:04:01.845Z,0.77
2023-03-30T01:05:01.857Z,0.77
2023-03-30T01:06:01.886Z,0.77
2023-03-30T01:07:01.934Z,0.77
2023-03-30T01:08:01.925Z,0.76
2023-03-30T01:09:01.953Z,0.76
2023-03-30T01:10:01.964Z,0.76
2023-03-30T01:11:02.269Z,0.76
2023-03-30T01:12:02.028Z,0.76
2023-03-30T01:13:02.060Z,0.76
2023-03-30T01:14:02.056Z,0.76
2023-03-30T01:15:02.089Z,0.76
2023-03-30T01:16:02.222Z,0.77
2023-03-30T01:17:02.141Z,0.76
2023-03-30T01:18:02.222Z,0.76
2023-03-30T01:19:02.207Z,0.76
2023-03-30T01:20:02.231Z,0.76
2023-03-30T01:21:02.470Z,0.76
2023-03-30T01:22:02.276Z,0.76
2023-03-30T01:23:02.354Z,0.76
2023-03-30T01:24:02.347Z,0.76
2023-03-30T01:25:02.393Z,0.76
2023-03-30T01:26:02.379Z,0.76
2023-03-30T01:27:02.424Z,0.76
2023-03-30T01:28:02.466Z,0.76
2023-03-30T01:29:02.522Z,0.77
2023-03-30T01:30:02.596Z,0.76
2023-03-30T01:31:02.863Z,0.76
2023-03-30T01:32:02.597Z,0.76
2023-03-30T01:33:02.700Z,0.76
2023-03-30T01:34:02.672Z,0.76
2023-03-30T01:35:02.753Z,0.75
2023-03-30T01:36:02.818Z,0.75
2023-03-30T01:37:02.785Z,0.75
2023-03-30T01:38:02.836Z,0.76
2023-03-30T01:39:02.890Z,0.76
2023-03-30T01:40:02.939Z,0.77
2023-03-30T01:41:03.173Z,0.76
2023-03-30T01:42:03.040Z,0.76
2023-03-30T01:43:03.065Z,0.76
2023-03-30T01:44:03.140Z,0.76
2023-03-30T01:45:03.132Z,0.76
2023-03-30T01:46:03.144Z,0.75
2023-03-30T01:47:03.300Z,0.76
2023-03-30T01:48:03.316Z,0.76
2023-03-30T01:49:03.290Z,0.76
2023-03-30T01:50:03.283Z,0.76
2023-03-30T01:51:03.540Z,0.76
2023-03-30T01:52:03.360Z,0.76
2023-03-30T01:53:03.401Z,0.76
2023-03-30T01:54:03.455Z,0.76
2023-03-30T01:55:03.488Z,0.75
2023-03-30T01:56:03.558Z,0.76
2023-03-30T01:57:03.590Z,0.76
2023-03-30T01:58:03.619Z,0.75
2023-03-30T01:59:03.619Z,0.75
2023-03-30T02:00:03.710Z,0.76
2023-03-30T02:01:03.911Z,0.75
2023-03-30T02:02:03.832Z,0.75
2023-03-30T02:03:03.924Z,0.75
2023-03-30T02:04:03.856Z,0.75
2023-03-30T02:05:03.889Z,0.75
2023-03-30T02:06:04.001Z,0.75
2023-03-30T02:07:03.990Z,0.75
2023-03-30T02:08:04.016Z,0.75
2023-03-30T02:09:04.054Z,0.76
2023-03-30T02:10:04.109Z,0.76
2023-03-30T02:11:04.240Z,0.76
2023-03-30T02:12:04.147Z,0.75
2023-03-30T02:13:04.189Z,0.75
2023-03-30T02:14:04.301Z,0.75
2023-03-30T02:15:04.272Z,0.75
2023-03-30T02:16:04.326Z,0.75
2023-03-30T02:17:04.340Z,0.76
2023-03-30T02:18:04.499Z,0.76
2023-03-30T02:19:04.511Z,0.75
2023-03-30T02:20:04.508Z,0.75
2023-03-30T02:21:04.754Z,0.75
2023-03-30T02:22:04.558Z,0.75
2023-03-30T02:23:04.635Z,0.75
2023-03-30T02:24:04.631Z,0.75
2023-03-30T02:25:04.681Z,0.76
2023-03-30T02:26:04.768Z,0.74
2023-03-30T02:27:04.759Z,0.75
2023-03-30T02:28:04.830Z,0.75
2023-03-30T02:29:04.890Z,0.75
2023-03-30T02:30:04.957Z,0.75
2023-03-30T02:31:05.081Z,0.74
2023-03-30T02:32:04.991Z,0.75
2023-03-30T02:33:05.054Z,0.75
2023-03-30T02:34:05.073Z,0.75
2023-03-30T02:35:05.118Z,0.75
2023-03-30T02:36:05.149Z,0.75
2023-03-30T02:37:05.176Z,0.74
2023-03-30T02:38:05.233Z,0.74
2023-03-30T02:39:05.273Z,0.74
2023-03-30T02:40:05.342Z,0.74
2023-03-30T02:41:05.590Z,0.75
2023-03-30T02:42:05.420Z,0.75
2023-03-30T02:43:05.490Z,0.74
2023-03-30T02:44:05.504Z,0.75
2023-03-30T02:45:05.535Z,0.75
2023-03-30T02:46:05.678Z,0.74
2023-03-30T02:47:05.658Z,0.75
2023-03-30T02:48:05.710Z,0.75
2023-03-30T02:49:05.697Z,0.74
2023-03-30T02:50:05.751Z,0.74
2023-03-30T02:51:05.991Z,0.74
2023-03-30T02:52:05.791Z,0.75
2023-03-30T02:53:05.835Z,0.74
2023-03-30T02:54:05.917Z,0.75
2023-03-30T02:55:05.909Z,0.74
2023-03-30T02:56:05.962Z,0.75
2023-03-30T02:57:06.044Z,0.74
2023-03-30T02:58:06.080Z,0.74
2023-03-30T02:59:06.113Z,0.75
2023-03-30T03:00:06.160Z,0.74
2023-03-30T03:01:06.481Z,0.74
2023-03-30T03:02:06.393Z,0.74
2023-03-30T03:03:06.305Z,0.75
2023-03-30T03:04:06.309Z,0.75
2023-03-30T03:05:06.354Z,0.74
2023-03-30T03:06:06.389Z,0.74
2023-03-30T03:07:06.430Z,0.74
2023-03-30T03:08:06.487Z,0.74
2023-03-30T03:09:06.532Z,0.74
2023-03-30T03:10:06.582Z,0.74
2023-03-30T03:11:06.830Z,0.74
2023-03-30T03:12:06.700Z,0.74
2023-03-30T03:13:06.681Z,0.74
2023-03-30T03:14:06.721Z,0.73
2023-03-30T03:15:06.774Z,0.73
2023-03-30T03:16:06.820Z,0.74
2023-03-30T03:17:06.933Z,0.74
2023-03-30T03:18:06.910Z,0.74
2023-03-30T03:19:06.944Z,0.74
2023-03-30T03:20:07.005Z,0.73
2023-03-30T03:21:07.101Z,0.74
2023-03-30T03:22:07.056Z,0.73
2023-03-30T03:23:07.098Z,0.73
2023-03-30T03:24:07.209Z,0.74
2023-03-30T03:25:07.221Z,0.73
2023-03-30T03:26:07.242Z,0.74
2023-03-30T03:27:07.271Z,0.74
2023-03-30T03:28:07.303Z,0.74
2023-03-30T03:29:07.339Z,0.73
2023-03-30T03:30:07.383Z,0.73
2023-03-30T03:31:08.119Z,0.73
2023-03-30T03:32:07.437Z,0.74
2023-03-30T03:33:07.543Z,0.73
2023-03-30T03:34:07.515Z,0.74
2023-03-30T03:35:07.569Z,0.73
2023-03-30T03:36:07.717Z,0.74
2023-03-30T03:37:07.625Z,0.74
2023-03-30T03:38:07.675Z,0.73
2023-03-30T03:39:07.711Z,0.73
2023-03-30T03:40:07.760Z,0.73
2023-03-30T03:41:07.753Z,0.73
2023-03-30T03:42:07.816Z,0.73
2023-03-30T03:43:07.850Z,0.74
2023-03-30T03:44:07.879Z,0.74
2023-03-30T03:45:07.983Z,0.74
2023-03-30T03:46:08.052Z,0.73
2023-03-30T03:47:07.994Z,0.74
2023-03-30T03:48:08.080Z,0.73
2023-03-30T03:49:08.091Z,0.73
2023-03-30T03:50:08.104Z,0.73
2023-03-30T03:51:08.101Z,0.73
2023-03-30T03:52:08.159Z,0.73
2023-03-30T03:53:08.208Z,0.73
2023-03-30T03:54:08.274Z,0.73
2023-03-30T03:55:08.281Z,0.73
2023-03-30T03:56:08.267Z,0.73
2023-03-30T03:57:08.361Z,0.73
2023-03-30T03:58:08.356Z,0.73
2023-03-30T03:59:08.402Z,0.74
2023-03-30T04:00:08.470Z,0.74
2023-03-30T04:01:08.802Z,0.74
2023-03-30T04:02:08.584Z,0.74
2023-03-30T04:03:08.626Z,0.73
2023-03-30T04:04:08.652Z,0.74
2023-03-30T04:05:08.656Z,0.75
2023-03-30T04:06:08.719Z,0.75
2023-03-30T04:07:08.714Z,0.74
2023-03-30T04:08:08.765Z,0.74
2023-03-30T04:09:08.816Z,0.73
2023-03-30T04:10:08.882Z,0.73
2023-03-30T04:11:08.927Z,0.72
2023-03-30T04:12:08.940Z,0.72
2023-03-30T04:13:09.005Z,0.71
2023-03-30T04:14:09.151Z,0.71
2023-03-30T04:15:09.099Z,0.71
2023-03-30T04:16:09.126Z,0.71
2023-03-30T04:17:09.202Z,0.70
2023-03-30T04:18:09.338Z,0.70
2023-03-30T04:19:09.248Z,0.69
2023-03-30T04:20:09.293Z,0.68
2023-03-30T04:21:09.368Z,0.67
2023-03-30T04:22:09.421Z,0.66
2023-03-30T04:23:09.487Z,0.66
2023-03-30T04:24:09.493Z,0.66
2023-03-30T04:25:09.536Z,0.65
2023-03-30T04:26:09.607Z,0.64
2023-03-30T04:27:09.670Z,0.62
2023-03-30T04:28:09.716Z,0.62
2023-03-30T04:29:09.724Z,0.61
2023-03-30T04:30:09.775Z,0.61
2023-03-30T04:31:09.808Z,0.60
2023-03-30T04:32:09.945Z,0.59
2023-03-30T04:33:10.003Z,0.58
2023-03-30T04:34:10.010Z,0.58
2023-03-30T04:35:09.991Z,0.58
2023-03-30T04:36:10.102Z,0.58
2023-03-30T04:37:10.116Z,0.58
2023-03-30T04:38:10.147Z,0.57
2023-03-30T04:39:10.141Z,0.56
2023-03-30T04:40:10.222Z,0.56
2023-03-30T04:41:10.230Z,0.56
2023-03-30T04:42:10.256Z,0.56
2023-03-30T04:43:10.333Z,0.55
2023-03-30T04:44:10.367Z,0.55
2023-03-30T04:45:10.416Z,0.55
2023-03-30T04:46:10.486Z,0.54
2023-03-30T04:47:10.456Z,0.55
2023-03-30T04:48:10.571Z,0.55
2023-03-30T04:49:10.584Z,0.55
2023-03-30T04:50:10.658Z,0.55
2023-03-30T04:51:10.696Z,0.55
2023-03-30T04:52:10.711Z,0.55
2023-03-30T04:53:10.757Z,0.55
2023-03-30T04:54:10.792Z,0.55
2023-03-30T04:55:10.839Z,0.55
2023-03-30T04:56:10.875Z,0.55
2023-03-30T04:57:10.908Z,0.55
2023-03-30T04:58:10.942Z,0.55
2023-03-30T04:59:10.951Z,0.55
2023-03-30T05:00:11.007Z,0.55
2023-03-30T05:01:11.107Z,0.55
2023-03-30T05:02:11.118Z,0.55
2023-03-30T05:03:11.255Z,0.53
2023-03-30T05:04:11.216Z,0.51
2023-03-30T05:05:11.209Z,0.51
2023-03-30T05:06:11.237Z,0.51
2023-03-30T05:07:11.326Z,0.52
2023-03-30T05:08:11.365Z,0.51
2023-03-30T05:09:11.405Z,0.50
2023-03-30T05:10:11.441Z,0.51
2023-03-30T05:11:11.440Z,0.52
2023-03-30T05:12:11.491Z,0.52
2023-03-30T05:13:11.558Z,0.53
2023-03-30T05:14:11.609Z,0.52
2023-03-30T05:15:11.679Z,0.52
2023-03-30T05:16:11.697Z,0.52
2023-03-30T05:17:11.783Z,0.52
2023-03-30T05:18:11.826Z,0.52
2023-03-30T05:19:11.815Z,0.52
2023-03-30T05:20:11.865Z,0.52
2023-03-30T05:21:11.924Z,0.52
2023-03-30T05:22:11.952Z,0.52
2023-03-30T05:23:12.034Z,0.52
2023-03-30T05:24:12.049Z,0.52
2023-03-30T05:25:12.110Z,0.52
2023-03-30T05:26:12.141Z,0.53
2023-03-30T05:27:12.169Z,0.53
2023-03-30T05:28:12.253Z,0.53
2023-03-30T05:29:12.302Z,0.53
2023-03-30T05:30:12.326Z,0.54
2023-03-30T05:31:12.444Z,0.53
2023-03-30T05:32:12.513Z,0.53
2023-03-30T05:33:12.517Z,0.53
2023-03-30T05:34:12.544Z,0.53
2023-03-30T05:35:12.578Z,0.55
2023-03-30T05:36:12.672Z,0.57
2023-03-30T05:37:12.985Z,0.57
2023-03-30T05:38:12.772Z,0.60
2023-03-30T05:39:12.770Z,0.63
2023-03-30T05:40:12.803Z,0.65
2023-03-30T05:41:12.809Z,0.67
2023-03-30T05:42:12.892Z,0.70
2023-03-30T05:43:12.944Z,0.73
2023-03-30T05:44:12.935Z,0.74
2023-03-30T05:45:12.948Z,0.73
2023-03-30T05:46:12.979Z,0.75
2023-03-30T05:47:12.965Z,0.77
2023-03-30T05:48:12.995Z,0.78
2023-03-30T05:49:13.004Z,0.77
2023-03-30T05:50:13.033Z,0.80
2023-03-30T05:51:13.056Z,0.79
2023-03-30T05:52:13.058Z,0.82
2023-03-30T05:53:13.111Z,0.83
2023-03-30T05:54:13.124Z,0.84
2023-03-30T05:55:13.174Z,0.82
2023-03-30T05:56:13.122Z,0.83
2023-03-30T05:57:13.181Z,0.83
2023-03-30T05:58:13.096Z,0.82
2023-03-30T05:59:13.119Z,0.82
2023-03-30T06:00:13.196Z,0.83
2023-03-30T06:01:13.139Z,0.83
2023-03-30T06:02:13.198Z,0.80
2023-03-30T06:03:13.276Z,0.82
2023-03-30T06:04:13.226Z,0.82
2023-03-30T06:05:13.168Z,0.81
2023-03-30T06:06:13.163Z,0.80
2023-03-30T06:07:13.156Z,0.81
2023-03-30T06:08:13.173Z,0.82
2023-03-30T06:09:13.106Z,0.80
2023-03-30T06:10:13.122Z,0.80
2023-03-30T06:11:13.130Z,0.83
2023-03-30T06:12:13.187Z,0.81
2023-03-30T06:13:13.197Z,0.83
2023-03-30T06:14:13.276Z,0.81
2023-03-30T06:15:13.246Z,0.84
2023-03-30T06:16:13.395Z,0.82
2023-03-30T06:17:13.377Z,0.83
2023-03-30T06:18:13.454Z,0.83
2023-03-30T06:19:13.407Z,0.81
2023-03-30T06:20:13.619Z,0.82
2023-03-30T06:21:13.582Z,0.82
2023-03-30T06:22:13.677Z,0.82
2023-03-30T06:23:13.675Z,0.81
2023-03-30T06:24:13.832Z,0.80
2023-03-30T06:25:13.876Z,0.82
2023-03-30T06:26:13.946Z,0.80
2023-03-30T06:27:13.958Z,0.82
2023-03-30T06:28:14.048Z,0.81
2023-03-30T06:29:14.026Z,0.78
2023-03-30T06:30:14.157Z,0.79
2023-03-30T06:31:14.199Z,0.78
2023-03-30T06:32:14.377Z,0.77
2023-03-30T06:33:14.314Z,0.80
2023-03-30T06:34:14.366Z,0.77
2023-03-30T06:35:14.383Z,0.79
2023-03-30T06:36:14.527Z,0.78
2023-03-30T06:37:14.487Z,0.79
2023-03-30T06:38:14.566Z,0.74
2023-03-30T06:39:15.000Z,0.77
2023-03-30T06:40:14.653Z,0.75
2023-03-30T06:41:14.824Z,0.77
2023-03-30T06:42:14.728Z,0.78
2023-03-30T06:43:14.747Z,0.77
2023-03-30T06:44:14.977Z,0.76
2023-03-30T06:45:14.972Z,0.76
2023-03-30T06:46:15.180Z,0.78
2023-03-30T06:47:14.911Z,0.79
2023-03-30T06:48:14.977Z,0.76
2023-03-30T06:49:14.989Z,0.76
2023-03-30T06:50:15.037Z,0.76
2023-03-30T06:51:15.054Z,0.77
2023-03-30T06:52:15.028Z,0.75
2023-03-30T06:53:15.029Z,0.76
2023-03-30T06:54:15.036Z,0.78
2023-03-30T06:55:15.071Z,0.75
2023-03-30T06:56:15.140Z,0.75
2023-03-30T06:57:15.186Z,0.73
2023-03-30T06:58:15.141Z,0.74
2023-03-30T06:59:15.198Z,0.71
2023-03-30T07:00:15.374Z,0.71
2023-03-30T07:01:15.304Z,0.71
2023-03-30T07:02:15.385Z,0.69
2023-03-30T07:03:15.372Z,0.68
2023-03-30T07:04:15.484Z,0.68
2023-03-30T07:05:15.503Z,0.67
2023-03-30T07:06:15.509Z,0.66
2023-03-30T07:07:15.556Z,0.64
2023-03-30T07:08:15.602Z,0.65
2023-03-30T07:09:15.623Z,0.62
2023-03-30T07:10:15.662Z,0.65
2023-03-30T07:11:15.743Z,0.64
2023-03-30T07:12:15.756Z,0.62
2023-03-30T07:13:15.907Z,0.64
2023-03-30T07:14:15.885Z,0.63
2023-03-30T07:15:16.213Z,0.62
2023-03-30T07:16:16.008Z,0.63
2023-03-30T07:17:16.270Z,0.64
2023-03-30T07:18:16.163Z,0.62
2023-03-30T07:19:16.207Z,0.60
2023-03-30T07:20:16.223Z,0.60
2023-03-30T07:21:16.331Z,0.61
2023-03-30T07:22:16.356Z,0.59
2023-03-30T07:23:16.392Z,0.62
2023-03-30T07:24:16.484Z,0.61
2023-03-30T07:25:16.487Z,0.59
2023-03-30T07:26:16.575Z,0.59
2023-03-30T07:27:16.621Z,0.61
2023-03-30T07:28:16.708Z,0.58
2023-03-30T07:29:17.333Z,0.58
2023-03-30T07:30:21.684Z,0.63
2023-03-30T07:31:17.871Z,0.63
2023-03-30T07:32:16.859Z,0.64
2023-03-30T07:33:16.786Z,0.68
2023-03-30T07:34:16.816Z,0.77
2023-03-30T07:35:16.803Z,0.91
2023-03-30T07:36:16.847Z,0.95
2023-03-30T07:37:20.748Z,0.94
2023-03-30T07:38:16.774Z,0.94
2023-03-30T07:39:16.728Z,0.95
2023-03-30T07:40:16.759Z,0.94
2023-03-30T07:41:16.708Z,0.94
2023-03-30T07:42:16.778Z,0.95
2023-03-30T07:43:16.700Z,0.94
2023-03-30T07:44:16.717Z,0.94
2023-03-30T07:45:16.833Z,0.94
2023-03-30T07:46:16.739Z,0.93
2023-03-30T07:47:16.693Z,0.95
2023-03-30T07:48:16.689Z,0.95
2023-03-30T07:49:16.641Z,0.97
2023-03-30T07:50:16.690Z,0.96
2023-03-30T07:51:16.767Z,0.97
2023-03-30T07:52:16.645Z,0.96
2023-03-30T07:53:16.632Z,0.96
2023-03-30T07:54:16.655Z,1.01
2023-03-30T07:55:16.664Z,0.96
2023-03-30T07:56:16.599Z,0.96
2023-03-30T07:57:16.619Z,0.97
2023-03-30T07:58:16.581Z,0.99
2023-03-30T07:59:17.114Z,0.97
2023-03-30T08:00:16.569Z,0.95
2023-03-30T08:01:16.572Z,0.96
2023-03-30T08:02:16.578Z,0.97
2023-03-30T08:03:16.675Z,0.98
2023-03-30T08:04:17.027Z,0.98
2023-03-30T08:05:16.624Z,0.99
2023-03-30T08:06:16.528Z,0.97
2023-03-30T08:07:16.548Z,0.98
2023-03-30T08:08:16.540Z,0.98
2023-03-30T08:09:16.527Z,1.00
2023-03-30T08:10:16.567Z,0.99
2023-03-30T08:11:16.485Z,1.00
2023-03-30T08:12:16.526Z,1.00
2023-03-30T08:13:16.485Z,1.02
2023-03-30T08:14:16.496Z,1.04
2023-03-30T08:15:16.451Z,1.02
2023-03-30T08:16:16.545Z,1.03
2023-03-30T08:17:16.582Z,1.04
2023-03-30T08:18:17.056Z,1.07
2023-03-30T08:19:16.734Z,1.05
2023-03-30T08:20:16.838Z,1.04
2023-03-30T08:21:16.738Z,1.08
2023-03-30T08:22:16.850Z,1.07
2023-03-30T08:23:17.068Z,1.06
2023-03-30T08:24:16.983Z,1.04
2023-03-30T08:25:17.020Z,1.05
2023-03-30T08:26:17.069Z,1.11
2023-03-30T08:27:17.134Z,1.10
2023-03-30T08:28:17.261Z,1.04
2023-03-30T08:29:17.317Z,1.05
2023-03-30T08:30:17.299Z,1.06
2023-03-30T08:31:17.459Z,1.05
2023-03-30T08:32:17.455Z,1.03
2023-03-30T08:33:17.541Z,1.01
2023-03-30T08:34:17.515Z,0.94
2023-03-30T08:35:17.557Z,0.90
2023-03-30T08:36:17.631Z,0.85
2023-03-30T08:37:17.625Z,0.84
2023-03-30T08:38:17.907Z,0.83
2023-03-30T08:39:17.724Z,0.81
2023-03-30T08:40:19.379Z,0.80
2023-03-30T08:41:17.688Z,0.81
2023-03-30T08:42:17.635Z,0.79
2023-03-30T08:43:17.648Z,0.73
2023-03-30T08:44:17.721Z,0.72
2023-03-30T08:45:17.720Z,0.74
2023-03-30T08:46:17.862Z,0.74
2023-03-30T08:47:17.810Z,0.76
2023-03-30T08:48:17.814Z,0.79
2023-03-30T08:49:18.196Z,0.79
2023-03-30T08:50:17.975Z,0.78
2023-03-30T08:51:17.994Z,0.78
2023-03-30T08:52:18.080Z,0.78
2023-03-30T08:53:18.040Z,0.79
2023-03-30T08:54:18.533Z,0.81
2023-03-30T08:55:18.078Z,0.81
2023-03-30T08:56:18.079Z,0.82
2023-03-30T08:57:20.646Z,0.83
2023-03-30T08:58:18.040Z,0.83
2023-03-30T08:59:18.466Z,0.86
2023-03-30T09:00:19.137Z,0.85
2023-03-30T09:01:18.057Z,0.87
2023-03-30T09:02:18.196Z,0.86
2023-03-30T09:03:18.131Z,0.88
2023-03-30T09:04:18.081Z,0.88
2023-03-30T09:05:18.083Z,0.90
2023-03-30T09:06:18.164Z,0.91
2023-03-30T09:07:18.107Z,0.91
2023-03-30T09:08:18.197Z,0.93
2023-03-30T09:09:18.090Z,0.95
2023-03-30T09:10:21.719Z,0.93
2023-03-30T09:11:18.053Z,0.93
2023-03-30T09:12:18.014Z,0.93
2023-03-30T09:13:17.990Z,0.94
2023-03-30T09:14:17.938Z,0.95
2023-03-30T09:15:17.952Z,0.96
2023-03-30T09:16:19.327Z,0.99
2023-03-30T09:17:17.948Z,0.99
2023-03-30T09:18:17.945Z,1.01
2023-03-30T09:19:17.932Z,0.98
2023-03-30T09:20:17.952Z,1.01
2023-03-30T09:21:17.942Z,1.00
2023-03-30T09:22:17.999Z,1.01
2023-03-30T09:23:17.907Z,1.05
2023-03-30T09:24:19.854Z,1.04
2023-03-30T09:25:19.506Z,1.05
2023-03-30T09:26:17.868Z,1.06
2023-03-30T09:27:17.880Z,1.07
2023-03-30T09:28:17.913Z,1.05
2023-03-30T09:29:18.248Z,1.06
2023-03-30T09:30:20.519Z,1.07
2023-03-30T09:31:19.260Z,1.07
2023-03-30T09:32:18.232Z,1.07
2023-03-30T09:33:18.018Z,1.07
2023-03-30T09:34:21.061Z,1.08
2023-03-30T09:35:17.877Z,1.07
2023-03-30T09:36:17.929Z,1.07
2023-03-30T09:37:17.849Z,1.08
2023-03-30T09:38:17.858Z,1.07
2023-03-30T09:39:17.822Z,1.07
2023-03-30T09:40:17.805Z,1.06
2023-03-30T09:41:17.831Z,1.08
2023-03-30T09:42:17.775Z,1.04
2023-03-30T09:43:17.743Z,1.03
2023-03-30T09:44:17.791Z,1.03
2023-03-30T09:45:17.802Z,1.01
2023-03-30T09:46:17.832Z,1.01
2023-03-30T09:47:19.453Z,0.98
2023-03-30T09:48:17.757Z,1.04
2023-03-30T09:49:17.717Z,0.99
2023-03-30T09:50:18.465Z,0.97
2023-03-30T09:51:31.920Z,1.02
2023-03-30T09:52:17.788Z,1.03
2023-03-30T09:53:17.753Z,1.03
2023-03-30T09:54:18.280Z,1.03
2023-03-30T09:55:17.736Z,1.04
2023-03-30T09:56:17.704Z,1.03
2023-03-30T09:57:17.802Z,1.02
2023-03-30T09:58:17.729Z,1.01
2023-03-30T09:59:17.856Z,1.01
2023-03-30T10:00:17.657Z,0.96
2023-03-30T10:01:17.666Z,0.99
2023-03-30T10:02:17.678Z,0.94
2023-03-30T10:03:21.111Z,0.93
2023-03-30T10:04:18.502Z,0.93
2023-03-30T10:05:17.652Z,0.92
2023-03-30T10:06:17.648Z,0.92
2023-03-30T10:07:21.118Z,0.90
2023-03-30T10:08:17.692Z,0.90
2023-03-30T10:09:17.656Z,0.90
2023-03-30T10:10:17.607Z,0.88
2023-03-30T10:11:17.564Z,0.90
2023-03-30T10:12:17.617Z,0.90
2023-03-30T10:13:17.541Z,0.86
2023-03-30T10:14:18.667Z,0.88
2023-03-30T10:15:19.073Z,0.88
2023-03-30T10:16:17.592Z,0.86
2023-03-30T10:17:24.217Z,0.87
2023-03-30T10:18:17.562Z,0.87
2023-03-30T10:19:17.519Z,0.87
2023-03-30T10:20:17.496Z,0.87
2023-03-30T10:21:17.540Z,0.88
2023-03-30T10:22:17.543Z,0.89
2023-03-30T10:23:17.505Z,0.86
2023-03-30T10:24:28.165Z,0.87
2023-03-30T10:25:17.494Z,0.88
2023-03-30T10:26:17.450Z,0.89
2023-03-30T10:27:17.466Z,0.89
2023-03-30T10:28:17.473Z,0.82
2023-03-30T10:30:36.263Z,0.50
2023-03-30T10:31:36.310Z,0.50
2023-03-30T10:32:36.341Z,0.50
2023-03-30T10:33:36.249Z,0.50
2023-03-30T10:34:36.261Z,0.50
2023-03-30T10:35:36.283Z,0.52
2023-03-30T10:36:36.216Z,0.52
2023-03-30T10:37:36.208Z,0.47
2023-03-30T10:38:36.231Z,0.56
2023-03-30T10:39:36.186Z,0.58
2023-03-30T10:40:36.228Z,0.53
2023-03-30T10:41:36.161Z,0.57
2023-03-30T10:42:36.208Z,0.59
2023-03-30T10:43:36.217Z,0.63
2023-03-30T10:44:37.809Z,0.64
2023-03-30T10:45:36.193Z,0.63
2023-03-30T10:46:36.229Z,0.61
2023-03-30T10:47:36.198Z,0.55
2023-03-30T10:48:36.141Z,0.57
2023-03-30T10:49:36.160Z,0.56
2023-03-30T10:50:36.128Z,0.55
2023-03-30T10:51:36.990Z,0.57
2023-03-30T10:52:40.977Z,0.58
2023-03-30T10:53:37.105Z,0.58
2023-03-30T10:54:36.098Z,0.59
2023-03-30T10:55:36.088Z,0.58
2023-03-30T10:56:36.107Z,0.60
2023-03-30T10:57:36.074Z,0.61
2023-03-30T10:58:36.055Z,0.58
2023-03-30T10:59:36.048Z,0.59
2023-03-30T11:00:36.076Z,0.57
2023-03-30T11:01:36.342Z,0.56
2023-03-30T11:02:36.106Z,0.58
2023-03-30T11:03:36.071Z,0.54
2023-03-30T11:04:36.051Z,0.60
2023-03-30T11:05:36.063Z,0.58
2023-03-30T11:06:36.025Z,0.58
2023-03-30T11:07:36.012Z,0.57
2023-03-30T11:08:36.074Z,0.57
2023-03-30T11:09:36.028Z,0.55
2023-03-30T11:10:36.001Z,0.57
2023-03-30T11:11:35.968Z,0.60
2023-03-30T11:12:35.963Z,0.58
2023-03-30T11:13:35.936Z,0.58
2023-03-30T11:14:35.960Z,0.57
2023-03-30T11:15:35.967Z,0.56
2023-03-30T11:16:35.960Z,0.55
2023-03-30T11:17:35.954Z,0.58
2023-03-30T11:18:35.951Z,0.59
2023-03-30T11:19:35.950Z,0.59
2023-03-30T11:20:35.890Z,0.60
2023-03-30T11:21:35.994Z,0.57
2023-03-30T11:22:35.891Z,0.52
2023-03-30T11:23:35.955Z,0.50
2023-03-30T11:24:35.958Z,0.52
2023-03-30T11:25:36.051Z,0.50
2023-03-30T11:26:35.960Z,0.50
2023-03-30T11:27:36.002Z,0.50
2023-03-30T11:28:36.059Z,0.52
2023-03-30T11:29:36.078Z,0.51
2023-03-30T11:30:37.015Z,0.50
2023-03-30T11:31:36.212Z,0.51
2023-03-30T11:32:36.261Z,0.50
2023-03-30T11:33:36.289Z,0.50
2023-03-30T11:34:36.303Z,0.50
2023-03-30T11:35:36.406Z,0.53
2023-03-30T11:36:36.381Z,0.50
2023-03-30T11:37:36.409Z,0.51
2023-03-30T11:38:36.531Z,0.56
2023-03-30T11:39:36.486Z,0.56
2023-03-30T11:40:36.553Z,0.64
2023-03-30T11:41:36.569Z,0.65
2023-03-30T11:42:36.619Z,0.63
2023-03-30T11:43:36.720Z,0.57
2023-03-30T11:44:36.703Z,0.58
2023-03-30T11:45:36.729Z,0.59
2023-03-30T11:46:36.798Z,0.64
2023-03-30T11:47:36.929Z,0.62
2023-03-30T11:48:36.855Z,0.65
2023-03-30T11:49:36.917Z,0.59
2023-03-30T11:50:36.966Z,0.60
2023-03-30T11:51:37.000Z,0.60
2023-03-30T11:52:37.056Z,0.65
2023-03-30T11:53:37.096Z,0.61
2023-03-30T11:54:37.214Z,0.67
2023-03-30T11:55:37.179Z,0.64
2023-03-30T11:56:37.231Z,0.61
2023-03-30T11:57:37.280Z,0.57
2023-03-30T11:58:37.342Z,0.55
2023-03-30T11:59:37.389Z,0.59
2023-03-30T12:00:37.442Z,0.58
2023-03-30T12:01:37.470Z,0.61
2023-03-30T12:02:37.578Z,0.60
2023-03-30T12:03:37.668Z,0.58
2023-03-30T12:04:38.750Z,0.57
2023-03-30T12:05:37.631Z,0.52
2023-03-30T12:06:37.707Z,0.58
2023-03-30T12:07:37.713Z,0.52
2023-03-30T12:08:37.754Z,0.52
2023-03-30T12:09:37.821Z,0.50
2023-03-30T12:10:37.804Z,0.52
2023-03-30T12:11:37.874Z,0.53
2023-03-30T12:12:37.950Z,0.51
2023-03-30T12:13:50.236Z,0.51
2023-03-30T12:14:38.998Z,0.52
2023-03-30T12:15:38.007Z,0.52
2023-03-30T12:16:38.039Z,0.52
2023-03-30T12:17:38.065Z,0.52
2023-03-30T12:18:37.927Z,0.51
2023-03-30T12:19:52.900Z,0.52
2023-03-30T12:20:38.932Z,0.52
2023-03-30T12:21:37.858Z,0.52
2023-03-30T12:22:37.924Z,0.53
2023-03-30T12:23:37.930Z,0.56
2023-03-30T12:24:37.880Z,0.57
2023-03-30T12:25:37.879Z,0.57
2023-03-30T12:26:37.914Z,0.51
2023-03-30T12:27:37.852Z,0.50
2023-03-30T12:28:54.987Z,0.52
2023-03-30T12:30:00.840Z,0.52
2023-03-30T12:30:38.836Z,0.52
2023-03-30T12:31:37.850Z,0.53
2023-03-30T12:32:37.866Z,0.54
2023-03-30T12:33:37.825Z,0.58
2023-03-30T12:34:38.042Z,0.63
2023-03-30T12:35:37.838Z,0.67
2023-03-30T12:36:37.803Z,0.66
2023-03-30T12:37:37.821Z,0.71
2023-03-30T12:38:37.756Z,0.70
2023-03-30T12:39:37.761Z,0.66
2023-03-30T12:40:37.767Z,0.69
2023-03-30T12:41:37.737Z,0.69
2023-03-30T12:42:37.791Z,0.69
2023-03-30T12:43:37.709Z,0.70
2023-03-30T12:44:37.769Z,0.67
2023-03-30T12:45:37.850Z,0.68
2023-03-30T12:46:37.902Z,0.69
2023-03-30T12:47:37.768Z,0.68
2023-03-30T12:48:37.724Z,0.67
2023-03-30T12:49:37.721Z,0.71
2023-03-30T12:50:37.704Z,0.66
2023-03-30T12:51:37.663Z,0.67
2023-03-30T12:52:37.713Z,0.69
2023-03-30T12:53:37.682Z,0.70
2023-03-30T12:54:37.670Z,0.72
2023-03-30T12:55:37.663Z,0.71
2023-03-30T12:56:37.673Z,0.70
2023-03-30T12:57:37.802Z,0.71
2023-03-30T12:58:37.883Z,0.73
2023-03-30T12:59:37.891Z,0.71
2023-03-30T13:00:37.973Z,0.69
2023-03-30T13:01:38.136Z,0.68
2023-03-30T13:02:38.117Z,0.69
2023-03-30T13:03:38.123Z,0.72
2023-03-30T13:04:38.220Z,0.72
2023-03-30T13:05:38.262Z,0.72
2023-03-30T13:06:38.282Z,0.74
2023-03-30T13:07:38.316Z,0.68
2023-03-30T13:08:38.435Z,0.70
2023-03-30T13:09:38.477Z,0.68
2023-03-30T13:10:38.535Z,0.67
2023-03-30T13:11:38.562Z,0.68
2023-03-30T13:12:38.705Z,0.67
2023-03-30T13:13:38.701Z,0.65
2023-03-30T13:14:38.789Z,0.60
2023-03-30T13:15:38.820Z,0.59
2023-03-30T13:16:38.895Z,0.58
2023-03-30T13:17:38.921Z,0.55
2023-03-30T13:18:38.900Z,0.56
2023-03-30T13:19:38.975Z,0.57
2023-03-30T13:20:39.079Z,0.55